KEZF

Details ICAO KEZF
Name SHANNON
Region United States
Timezone America/New_York (UTC-5.0)
Plans Departing 3
Arriving 6
Stats Elevation 85 ft / 26 m (AMSL)
Location 38.267441° -77.449737°
Runways 2
Magnetic Variation 10.457° W
Sunrise 2017-12-17 12:22:12 UTC / 2017-12-17 07:22:12 Local
Sunset 2017-12-17 21:52:35 UTC / 2017-12-17 16:52:35 Local
Advertisement - Login to hide

Runways

ID Width Length Bearing (true) Bearing (mag) Surface Threshold Offset Overrun Length
06 100 ft / 30 m 2,909 ft / 887 m 45.27° 55.73° Asphalt 143 ft / 44 m 0 ft / 0 m
15 150 ft / 46 m 1,306 ft / 398 m 144.61° 155.07° Dirt 0 ft / 0 m 0 ft / 0 m
24 100 ft / 30 m 2,909 ft / 887 m 225.27° 235.73° Asphalt 35 ft / 11 m 0 ft / 0 m
33 150 ft / 46 m 1,306 ft / 398 m 324.61° 335.07° Dirt 0 ft / 0 m 0 ft / 0 m

Map

Weather


0- 5 10 15 20 25 30 35+ Temperature / ° C

Clouds and Precipitation
Forecast for 2017-12-18 06:00 UTC. Updated 34 minutes ago

Ground ~20,000 ft ~40,000 ft Winds

METAR

KEZF 180335Z AUTO 20003KT 10SM OVC065 07/02 A3016 RMK AO2 T00660018

TAF

Not found

Frequencies

Recorded 128.12 MHz AWOS 3
Approach 124.65 MHz POTOMAC APP/DEP
Unicom 122.80 MHz CTAF/UNICOM
Approach 127.05 MHz QUANTICO ARRIVAL
Warning: Do not use this data for real-world aviation or navigation. No guarantee of current accuracy is given.